Time;durP1;ratioP1;P1;durP2;ratioP2;P2;SDS_P1;SDS_P2;PMS_P1;PMS_P2;Temp;Humidity;BMP_temperature;BMP_pressure;BME280_temperature;BME280_humidity;BME280_pressure;Samples;Min_cycle;Max_cycle;Signal;HPM_P1;HPM_P2
2023/11/01 00:01:27;;;;;;;3.00;0.50;;;;;;;11.80;81.16;99431.30;110709;1272;22210;-76
2023/11/01 00:03:55;;;;;;;2.20;0.40;;;;;;;11.80;81.12;99435.42;110719;1272;22293;-77
2023/11/01 00:06:23;;;;;;;3.30;0.50;;;;;;;11.80;80.93;99434.36;110720;1272;22252;-77
2023/11/01 00:08:52;;;;;;;5.30;0.70;;;;;;;11.81;80.91;99442.29;110653;1272;22336;-77
2023/11/01 00:11:22;;;;;;;2.00;0.50;;;;;;;11.81;80.85;99442.29;110635;1272;22375;-76
2023/11/01 00:13:51;;;;;;;2.60;0.50;;;;;;;11.81;80.96;99445.39;110645;1272;22226;-77
2023/11/01 00:16:20;;;;;;;4.40;0.50;;;;;;;11.79;80.97;99449.14;110584;1269;226199;-77
2023/11/01 00:18:48;;;;;;;2.70;0.60;;;;;;;11.79;80.98;99448.80;110482;1270;22453;-77
2023/11/01 00:21:16;;;;;;;4.00;0.60;;;;;;;11.79;81.01;99454.14;110728;1269;22224;-77
2023/11/01 00:23:44;;;;;;;4.70;0.60;;;;;;;11.79;80.95;99456.63;110727;1272;22841;-77
2023/11/01 00:26:12;;;;;;;5.00;0.60;;;;;;;11.79;81.01;99459.93;110716;1272;22179;-77
2023/11/01 00:28:41;;;;;;;2.80;0.50;;;;;;;11.79;80.86;99458.31;110724;1272;23572;-77
2023/11/01 00:31:09;;;;;;;2.60;0.50;;;;;;;11.79;80.93;99459.68;110706;1272;22198;-77
2023/11/01 00:33:37;;;;;;;4.10;0.50;;;;;;;11.79;80.92;99453.38;110682;1266;22165;-77
2023/11/01 00:36:07;;;;;;;8.20;0.60;;;;;;;11.78;80.95;99456.73;110734;1272;22356;-77
2023/11/01 00:38:35;;;;;;;3.10;0.40;;;;;;;11.79;80.71;99459.89;110702;1272;22552;-77
2023/11/01 00:41:04;;;;;;;3.20;0.50;;;;;;;11.79;80.59;99466.09;110678;1270;22207;-77
2023/11/01 00:43:37;;;;;;;2.50;0.50;;;;;;;11.79;80.66;99469.14;110699;1272;22258;-77
2023/11/01 00:46:05;;;;;;;6.70;0.60;;;;;;;11.79;80.65;99466.64;110653;1268;23018;-77
2023/11/01 00:48:36;;;;;;;2.30;0.60;;;;;;;11.79;80.51;99473.24;110717;1272;22341;-77
2023/11/01 00:51:03;;;;;;;;;;;;;;;11.79;80.56;99472.85;110704;1266;22472;-77
2023/11/01 00:53:31;;;;;;;3.70;0.50;;;;;;;11.78;80.71;99475.84;110712;1269;23372;-77
2023/11/01 00:56:00;;;;;;;3.10;0.50;;;;;;;11.78;80.59;99478.98;110708;1272;22159;-77
2023/11/01 00:58:28;;;;;;;2.60;0.50;;;;;;;11.77;80.52;99473.45;110670;1266;22251;-77
2023/11/01 01:00:56;;;;;;;4.60;0.50;;;;;;;11.77;80.53;99475.08;110674;1272;22431;-77
2023/11/01 01:03:24;;;;;;;3.30;0.60;;;;;;;11.76;80.58;99476.30;110604;1272;22278;-77
2023/11/01 01:05:52;;;;;;;2.90;0.50;;;;;;;11.77;80.71;99476.75;110708;1272;22340;-77
2023/11/01 01:08:20;;;;;;;2.20;0.30;;;;;;;11.76;80.57;99483.57;110712;1263;22204;-77
2023/11/01 01:10:48;;;;;;;3.00;0.50;;;;;;;11.76;80.63;99481.67;110746;1269;23191;-76
2023/11/01 01:13:16;;;;;;;3.00;0.50;;;;;;;11.76;80.59;99485.50;110638;1272;23063;-77
2023/11/01 01:15:44;;;;;;;5.30;0.70;;;;;;;11.75;80.53;99482.34;110658;1272;22171;-76
2023/11/01 01:18:14;;;;;;;3.70;0.40;;;;;;;11.76;80.66;99485.02;110628;1269;22278;-75
2023/11/01 01:20:42;;;;;;;5.30;0.60;;;;;;;11.76;80.61;99484.22;110682;1272;23367;-74
2023/11/01 01:23:10;;;;;;;3.10;0.50;;;;;;;11.76;80.72;99486.71;110629;1269;22373;-75
2023/11/01 01:25:39;;;;;;;3.70;0.50;;;;;;;11.76;80.59;99486.86;110608;1267;22333;-75
2023/11/01 01:28:07;;;;;;;2.50;0.50;;;;;;;11.76;80.62;99485.80;110675;1272;22328;-74
2023/11/01 01:30:35;;;;;;;4.40;0.60;;;;;;;11.76;80.75;99485.59;110627;1272;22342;-75
2023/11/01 01:33:03;;;;;;;4.60;0.50;;;;;;;11.76;80.71;99486.35;108200;1270;22520;-75
2023/11/01 01:35:31;;;;;;;2.20;0.30;;;;;;;11.75;80.68;99486.14;107939;1264;22561;-75
2023/11/01 01:38:00;;;;;;;3.10;0.40;;;;;;;11.73;80.63;99486.30;108001;1267;22640;-74
2023/11/01 01:40:28;;;;;;;4.00;1.00;;;;;;;11.71;80.61;99482.94;107811;1267;22599;-75
2023/11/01 01:43:08;;;;;;;1.80;0.40;;;;;;;11.70;80.70;99483.23;107918;1265;22520;-75
2023/11/01 01:45:36;;;;;;;3.80;0.40;;;;;;;11.68;80.74;99490.86;107662;1266;22550;-75
2023/11/01 01:48:05;;;;;;;4.70;0.60;;;;;;;11.67;80.64;99486.54;107924;1266;22524;-74
2023/11/01 01:50:34;;;;;;;4.50;0.50;;;;;;;11.67;80.77;99489.45;108210;1269;22999;-75
2023/11/01 01:53:03;;;;;;;3.90;0.50;;;;;;;11.65;80.75;99493.98;108115;1265;23352;-74
2023/11/01 01:55:31;;;;;;;5.10;0.50;;;;;;;11.65;80.98;99491.04;107980;1267;25474;-74
2023/11/01 01:58:00;;;;;;;2.50;0.50;;;;;;;11.64;80.89;99497.02;107896;1267;22633;-75
2023/11/01 02:00:30;;;;;;;7.70;0.60;;;;;;;11.63;80.83;99494.79;107806;1266;23937;-74
2023/11/01 02:03:00;;;;;;;3.00;0.60;;;;;;;11.62;80.88;99492.80;110709;1265;23207;-76
2023/11/01 02:05:30;;;;;;;3.40;0.50;;;;;;;11.60;80.98;99497.98;110480;1272;23432;-75
2023/11/01 02:07:59;;;;;;;2.10;0.50;;;;;;;11.59;81.17;99498.33;110731;1267;23550;-75
2023/11/01 02:10:28;;;;;;;6.60;0.70;;;;;;;11.58;81.21;99500.66;110719;1267;22096;-75
2023/11/01 02:12:56;;;;;;;3.00;0.50;;;;;;;11.57;80.99;99504.02;110758;1267;22191;-74
2023/11/01 02:15:24;;;;;;;2.20;0.50;;;;;;;11.58;81.16;99508.14;110743;1269;22316;-76
2023/11/01 02:17:52;;;;;;;3.50;0.50;;;;;;;11.59;81.20;99506.46;110728;1269;22967;-75
2023/11/01 02:20:21;;;;;;;4.60;0.50;;;;;;;11.60;81.23;99510.17;110755;1267;23940;-76
2023/11/01 02:22:56;;;;;;;2.60;0.50;;;;;;;11.60;81.37;99506.33;110747;1268;22400;-75
2023/11/01 02:25:28;;;;;;;4.90;0.50;;;;;;;11.61;81.39;99507.55;110760;1266;22454;-76
2023/11/01 02:27:56;;;;;;;4.00;0.70;;;;;;;11.63;81.45;99510.30;110744;1266;23429;-76
2023/11/01 02:30:25;;;;;;;2.60;0.40;;;;;;;11.62;81.43;99511.35;110709;1272;22365;-75
2023/11/01 02:32:53;;;;;;;3.20;0.40;;;;;;;11.63;81.48;99512.11;110748;1272;22424;-76
2023/11/01 02:35:21;;;;;;;2.10;0.50;;;;;;;11.64;81.52;99513.41;110751;1267;22165;-76
2023/11/01 02:37:52;;;;;;;7.00;0.70;;;;;;;11.64;81.51;99513.86;109554;1266;26409;-76
2023/11/01 02:40:21;;;;;;;6.20;0.60;;;;;;;11.64;81.62;99510.00;107967;1269;23759;-76
2023/11/01 02:42:51;;;;;;;4.50;0.50;;;;;;;11.64;81.62;99512.18;108142;1272;25967;-76
2023/11/01 02:45:18;;;;;;;;;;;;;;;11.64;81.60;99515.23;110759;1272;22405;-76
2023/11/01 02:47:46;;;;;;;2.60;0.60;;;;;;;11.63;81.93;99515.89;110801;1272;22209;-76
2023/11/01 02:50:16;;;;;;;4.70;0.60;;;;;;;11.63;81.90;99519.49;110774;1272;22299;-76
2023/11/01 02:52:44;;;;;;;10.80;0.80;;;;;;;11.63;82.08;99519.90;110791;1272;22399;-76
2023/11/01 02:55:15;;;;;;;6.30;0.60;;;;;;;11.62;82.09;99522.49;110754;1272;24610;-75
2023/11/01 02:57:43;;;;;;;3.40;0.60;;;;;;;11.61;82.00;99522.03;110690;1269;22256;-76
2023/11/01 03:00:18;;;;;;;3.20;0.70;;;;;;;11.62;82.15;99520.05;110664;1272;22916;-77
2023/11/01 03:02:46;;;;;;;4.00;0.70;;;;;;;11.62;82.23;99524.52;110763;1272;22397;-80
2023/11/01 03:05:15;;;;;;;5.60;0.80;;;;;;;11.60;82.31;99525.48;110690;1272;23032;-79
2023/11/01 03:07:43;;;;;;;8.90;1.60;;;;;;;11.61;82.43;99523.60;110764;1266;22195;-77
2023/11/01 03:10:13;;;;;;;5.00;0.70;;;;;;;11.61;82.44;99529.80;110757;1272;22176;-77
2023/11/01 03:12:42;;;;;;;5.00;1.00;;;;;;;11.63;82.56;99526.05;110739;1258;22157;-77
2023/11/01 03:15:12;;;;;;;5.10;1.10;;;;;;;11.60;82.49;99526.45;110744;1272;23038;-77
2023/11/01 03:17:42;;;;;;;12.20;1.70;;;;;;;11.57;82.49;99527.15;110721;1272;22405;-77
2023/11/01 03:20:11;;;;;;;8.80;1.40;;;;;;;11.54;82.59;99529.72;110733;1272;22317;-77
2023/11/01 03:22:42;;;;;;;9.10;1.30;;;;;;;11.53;82.71;99532.21;110717;1272;22371;-77
2023/11/01 03:25:10;;;;;;;10.20;1.40;;;;;;;11.53;82.83;99529.25;110732;1269;22428;-77
2023/11/01 03:27:40;;;;;;;7.60;1.30;;;;;;;11.53;82.99;99531.50;110733;1269;22308;-77
2023/11/01 03:30:09;;;;;;;8.70;1.20;;;;;;;11.52;82.80;99533.33;110732;1267;22361;-77
2023/11/01 03:32:37;;;;;;;7.90;1.20;;;;;;;11.52;82.86;99538.30;108910;1272;22680;-79
2023/11/01 03:35:07;;;;;;;5.70;1.20;;;;;;;11.50;82.96;99538.61;107803;1267;22554;-78
2023/11/01 03:37:35;;;;;;;5.90;1.00;;;;;;;11.47;82.94;99538.61;110671;1266;22903;-76
2023/11/01 03:40:05;;;;;;;3.70;0.90;;;;;;;11.44;83.03;99543.22;110712;1268;22347;-76
2023/11/01 03:42:33;;;;;;;4.90;1.00;;;;;;;11.40;82.96;99545.27;110667;1272;22417;-76
2023/11/01 03:45:01;;;;;;;3.90;1.00;;;;;;;11.37;82.99;99550.54;110655;1270;22481;-78
2023/11/01 03:47:29;;;;;;;5.80;1.70;;;;;;;11.33;82.97;99550.05;110676;1259;22204;-78
2023/11/01 03:50:00;;;;;;;5.00;1.10;;;;;;;11.29;83.03;99552.13;110681;1266;22374;-77
2023/11/01 03:52:27;;;;;;;;;;;;;;;11.25;83.19;99554.65;110714;1270;22434;-77
2023/11/01 03:54:55;;;;;;;4.00;0.90;;;;;;;11.20;83.24;99554.02;110665;1272;22453;-77
2023/11/01 03:57:23;;;;;;;4.90;0.90;;;;;;;11.15;83.38;99558.05;110730;1269;22147;-77
2023/11/01 03:59:51;;;;;;;7.90;0.90;;;;;;;11.14;83.57;99554.09;110754;1272;22181;-77
2023/11/01 04:02:19;;;;;;;5.60;1.10;;;;;;;11.08;83.36;99553.09;110677;1267;22519;-77
2023/11/01 04:04:48;;;;;;;6.30;1.10;;;;;;;11.04;83.40;99553.47;110605;1266;22346;-77
2023/11/01 04:07:16;;;;;;;4.40;1.10;;;;;;;11.00;83.49;99556.08;110712;1266;22394;-77
2023/11/01 04:09:45;;;;;;;5.50;0.90;;;;;;;10.96;83.51;99556.10;110672;1267;22340;-78
2023/11/01 04:12:13;;;;;;;6.60;1.10;;;;;;;10.93;83.55;99563.20;110669;1266;22342;-76
2023/11/01 04:14:41;;;;;;;7.00;1.30;;;;;;;10.89;83.61;99559.06;110649;1266;22378;-77
2023/11/01 04:17:09;;;;;;;4.00;1.00;;;;;;;10.83;83.60;99559.47;110683;1261;22348;-76
2023/11/01 04:19:38;;;;;;;6.50;1.00;;;;;;;10.77;83.58;99557.80;110716;1267;22354;-77
2023/11/01 04:22:09;;;;;;;8.20;1.40;;;;;;;10.69;83.36;99563.79;110696;1272;22507;-77
2023/11/01 04:24:37;;;;;;;5.40;1.10;;;;;;;10.61;83.59;99569.09;110669;1260;22308;-76
2023/11/01 04:27:06;;;;;;;4.20;1.10;;;;;;;10.54;83.61;99566.10;110680;1272;22318;-77
2023/11/01 04:29:38;;;;;;;8.40;1.40;;;;;;;10.47;83.72;99569.24;110708;1269;22310;-76
2023/11/01 04:32:06;;;;;;;7.60;1.10;;;;;;;10.42;83.74;99569.05;110713;1265;22327;-77
2023/11/01 04:34:36;;;;;;;5.50;1.30;;;;;;;10.37;83.88;99566.47;110704;1260;23130;-76
2023/11/01 04:37:04;;;;;;;5.30;1.10;;;;;;;10.37;84.21;99566.98;110689;1271;22173;-76
2023/11/01 04:39:32;;;;;;;6.40;1.20;;;;;;;10.34;84.13;99569.29;110680;1267;22335;-77
2023/11/01 04:42:04;;;;;;;8.80;1.30;;;;;;;10.29;84.27;99572.38;110670;1272;22322;-77
2023/11/01 04:44:32;;;;;;;8.60;1.30;;;;;;;10.25;84.28;99574.97;110717;1267;22337;-76
2023/11/01 04:47:00;;;;;;;9.80;1.40;;;;;;;10.20;84.46;99578.68;110711;1267;23576;-77
2023/11/01 04:49:29;;;;;;;8.30;1.50;;;;;;;10.19;84.66;99581.66;110740;1267;22166;-77
2023/11/01 04:51:58;;;;;;;12.50;1.80;;;;;;;10.17;84.90;99579.11;110691;1272;22400;-77
2023/11/01 04:54:26;;;;;;;10.30;1.70;;;;;;;10.17;84.98;99579.05;110720;1272;22375;-77
2023/11/01 04:56:54;;;;;;;8.10;1.80;;;;;;;10.16;85.11;99576.61;110724;1272;22947;-77
2023/11/01 04:59:23;;;;;;;7.70;1.80;;;;;;;10.16;84.97;99581.08;110656;1272;22243;-77
2023/11/01 05:01:51;;;;;;;6.80;1.60;;;;;;;10.16;85.08;99581.94;110647;1272;22253;-77
2023/11/01 05:04:19;;;;;;;5.60;1.30;;;;;;;10.15;85.21;99582.23;110724;1272;22272;-77
2023/11/01 05:06:47;;;;;;;7.10;1.30;;;;;;;10.14;85.25;99583.89;110751;1269;23371;-77
2023/11/01 05:09:15;;;;;;;9.90;1.50;;;;;;;10.14;85.26;99588.09;110709;1272;22145;-77
2023/11/01 05:11:46;;;;;;;7.40;1.60;;;;;;;10.14;85.39;99588.41;110637;1272;23535;-77
2023/11/01 05:14:14;;;;;;;6.90;1.40;;;;;;;10.15;85.49;99592.23;110726;1272;23137;-77
2023/11/01 05:16:42;;;;;;;5.60;1.50;;;;;;;10.15;85.46;99592.73;110774;1271;22251;-77
2023/11/01 05:19:11;;;;;;;6.10;1.30;;;;;;;10.16;85.57;99587.26;110729;1272;22239;-77
2023/11/01 05:21:39;;;;;;;8.50;1.70;;;;;;;10.16;85.73;99582.85;110772;1272;22178;-77
2023/11/01 05:24:09;;;;;;;8.00;1.90;;;;;;;10.14;85.54;99585.13;110668;1272;22178;-77
2023/11/01 05:26:37;;;;;;;7.60;1.30;;;;;;;10.14;85.56;99591.60;110741;1272;22443;-76
2023/11/01 05:29:06;;;;;;;7.60;1.70;;;;;;;10.12;85.63;99587.78;110750;1272;22412;-77
2023/11/01 05:31:34;;;;;;;7.10;1.30;;;;;;;10.13;85.66;99589.98;110748;1272;23064;-77
2023/11/01 05:34:03;;;;;;;6.00;1.30;;;;;;;10.12;85.58;99598.63;110773;1272;22260;-77
2023/11/01 05:36:31;;;;;;;2.90;1.10;;;;;;;10.10;85.66;99599.23;110683;1266;22303;-76
2023/11/01 05:39:05;;;;;;;7.60;1.30;;;;;;;10.09;85.74;99600.86;110600;1270;22909;-76
2023/11/01 05:41:33;;;;;;;9.60;1.20;;;;;;;10.10;85.86;99605.27;110587;1272;22327;-75
2023/11/01 05:44:02;;;;;;;5.50;1.20;;;;;;;10.12;85.91;99608.85;110768;1268;22171;-76
2023/11/01 05:46:31;;;;;;;6.60;1.20;;;;;;;10.13;85.99;99607.17;110795;1260;22170;-75
2023/11/01 05:49:04;;;;;;;6.50;1.10;;;;;;;10.13;86.08;99605.44;110784;1267;22160;-76
2023/11/01 05:51:32;;;;;;;4.50;1.00;;;;;;;10.14;85.99;99607.23;110700;1272;22239;-76
2023/11/01 05:54:06;;;;;;;5.40;1.10;;;;;;;10.14;86.22;99612.76;110696;1266;22338;-75
2023/11/01 05:56:34;;;;;;;7.80;1.10;;;;;;;10.16;86.18;99615.40;110716;1272;23177;-76
2023/11/01 05:59:03;;;;;;;5.60;1.00;;;;;;;10.15;86.24;99617.83;110779;1267;22857;-75
2023/11/01 06:01:31;;;;;;;7.60;1.20;;;;;;;10.15;86.27;99613.98;110742;1272;22177;-76
2023/11/01 06:04:00;;;;;;;5.60;1.30;;;;;;;10.16;86.36;99616.42;110770;1272;22216;-75
2023/11/01 06:06:28;;;;;;;4.10;1.10;;;;;;;10.15;86.37;99618.19;110769;1269;22885;-76
2023/11/01 06:08:56;;;;;;;6.50;1.20;;;;;;;10.17;86.48;99621.45;110774;1258;22227;-75
2023/11/01 06:11:25;;;;;;;5.10;1.40;;;;;;;10.20;86.55;99627.72;110733;1272;22276;-76
2023/11/01 06:13:54;;;;;;;7.30;1.40;;;;;;;10.22;86.55;99625.30;110666;1272;23094;-76
2023/11/01 06:16:22;;;;;;;6.70;1.20;;;;;;;10.23;86.48;99629.77;110762;1272;22229;-76
2023/11/01 06:18:52;;;;;;;4.50;1.00;;;;;;;10.25;86.63;99626.20;110774;1269;22201;-76
2023/11/01 06:21:21;;;;;;;6.10;1.30;;;;;;;10.28;86.71;99628.71;110759;1272;22187;-76
2023/11/01 06:23:49;;;;;;;5.40;1.00;;;;;;;10.29;86.65;99634.16;110750;1272;22439;-76
2023/11/01 06:26:17;;;;;;;7.10;1.20;;;;;;;10.32;86.72;99638.65;110635;1272;22383;-76
2023/11/01 06:28:45;;;;;;;5.90;1.10;;;;;;;10.34;86.75;99642.67;110674;1272;22211;-75
2023/11/01 06:31:14;;;;;;;5.90;1.40;;;;;;;10.35;86.68;99644.02;110672;1265;22235;-75
2023/11/01 06:33:42;;;;;;;4.90;1.20;;;;;;;10.37;86.63;99645.55;110737;1272;22293;-76
2023/11/01 06:36:11;;;;;;;6.00;1.70;;;;;;;10.39;86.62;99644.66;110663;1272;22148;-76
2023/11/01 06:38:39;;;;;;;8.10;2.10;;;;;;;10.41;86.66;99643.82;110726;1272;22388;-77
2023/11/01 06:41:08;;;;;;;7.00;1.70;;;;;;;10.43;86.70;99643.52;110765;1272;22244;-75
2023/11/01 06:43:36;;;;;;;6.70;1.60;;;;;;;10.44;86.79;99647.45;110701;1272;22521;-75
2023/11/01 06:46:05;;;;;;;4.90;1.30;;;;;;;10.46;86.68;99647.16;110762;1270;22221;-76
2023/11/01 06:48:34;;;;;;;5.20;1.10;;;;;;;10.48;86.84;99647.98;110756;1270;22338;-76
2023/11/01 06:51:02;;;;;;;9.80;1.40;;;;;;;10.51;86.81;99654.42;110744;1272;22201;-76
2023/11/01 06:53:32;;;;;;;5.80;1.50;;;;;;;10.52;87.01;99656.16;110776;1272;22186;-76
2023/11/01 06:56:00;;;;;;;6.70;1.30;;;;;;;10.53;86.96;99651.55;110770;1272;22221;-76
2023/11/01 06:58:28;;;;;;;4.70;1.20;;;;;;;10.55;87.06;99653.05;110777;1272;22198;-75
2023/11/01 07:00:56;;;;;;;4.20;1.40;;;;;;;10.57;86.96;99648.04;110656;1266;22506;-75
2023/11/01 07:03:27;;;;;;;8.50;1.40;;;;;;;10.60;87.14;99651.00;110711;1266;22369;-76
2023/11/01 07:05:55;;;;;;;;;;;;;;;10.62;87.07;99653.90;110680;1272;23570;-77
2023/11/01 07:08:24;;;;;;;8.80;1.60;;;;;;;10.64;87.34;99653.31;110672;1270;22207;-76
2023/11/01 07:10:52;;;;;;;6.10;1.10;;;;;;;10.67;87.36;99649.23;110626;1269;22445;-76
2023/11/01 07:13:20;;;;;;;5.40;1.30;;;;;;;10.69;87.40;99646.78;110657;1272;22292;-76
2023/11/01 07:15:52;;;;;;;10.90;1.90;;;;;;;10.71;87.25;99645.92;110715;1266;23144;-76
2023/11/01 07:18:20;;;;;;;9.00;1.40;;;;;;;10.73;87.27;99644.77;110634;1267;23599;-76
2023/11/01 07:20:49;;;;;;;5.80;1.60;;;;;;;10.74;87.21;99648.44;110696;1269;22448;-76
2023/11/01 07:23:17;;;;;;;6.30;1.50;;;;;;;10.77;87.26;99649.02;110684;1265;22556;-77
2023/11/01 07:25:46;;;;;;;5.70;1.20;;;;;;;10.79;87.51;99644.67;110655;1272;22333;-77
2023/11/01 07:28:15;;;;;;;5.30;1.30;;;;;;;10.82;87.28;99646.98;110785;1272;22173;-78
2023/11/01 07:30:43;;;;;;;4.80;1.40;;;;;;;10.84;87.28;99647.61;110693;1272;22139;-77
2023/11/01 07:33:12;;;;;;;6.10;1.80;;;;;;;10.86;87.48;99645.95;110708;1267;22451;-78
2023/11/01 07:35:40;;;;;;;8.20;1.50;;;;;;;10.88;87.45;99646.73;110782;1267;22423;-77
2023/11/01 07:38:08;;;;;;;4.50;1.50;;;;;;;10.91;87.24;99646.20;110717;1270;22201;-77
2023/11/01 07:40:36;;;;;;;5.50;1.40;;;;;;;10.95;87.29;99647.75;110744;1272;22329;-77
2023/11/01 07:43:05;;;;;;;3.90;1.30;;;;;;;10.98;87.33;99648.68;110727;1272;22215;-78
2023/11/01 07:45:33;;;;;;;4.50;1.00;;;;;;;11.00;87.13;99652.27;110725;1266;23071;-77
2023/11/01 07:48:02;;;;;;;5.00;1.20;;;;;;;11.02;87.42;99653.19;110667;1269;22916;-77
2023/11/01 07:50:32;;;;;;;7.00;1.30;;;;;;;11.05;87.44;99651.17;110675;1270;23093;-78
2023/11/01 07:53:00;;;;;;;5.40;1.20;;;;;;;11.08;87.37;99655.89;110724;1272;22388;-79
2023/11/01 07:55:29;;;;;;;5.00;1.30;;;;;;;11.13;87.49;99660.59;110767;1272;22178;-79
2023/11/01 07:57:58;;;;;;;7.70;1.40;;;;;;;11.16;87.56;99658.17;110787;1266;22960;-80
2023/11/01 08:00:26;;;;;;;6.90;1.20;;;;;;;11.19;87.60;99657.02;110785;1270;22237;-82
2023/11/01 08:02:55;;;;;;;5.90;1.40;;;;;;;11.22;87.51;99656.69;110697;1272;22192;-81
2023/11/01 08:05:23;;;;;;;4.70;1.50;;;;;;;11.25;87.40;99657.58;110803;1272;22279;-81
2023/11/01 08:07:52;;;;;;;5.30;1.40;;;;;;;11.29;87.68;99659.33;110776;1272;22157;-81
2023/11/01 08:10:21;;;;;;;6.10;1.40;;;;;;;11.33;87.65;99660.98;110781;1272;22221;-81
2023/11/01 08:12:49;;;;;;;7.10;1.50;;;;;;;11.36;87.51;99664.92;110777;1272;22190;-81
2023/11/01 08:15:20;;;;;;;4.30;1.10;;;;;;;11.41;87.58;99668.35;110762;1272;22415;-81
2023/11/01 08:17:49;;;;;;;8.30;1.40;;;;;;;11.46;87.60;99663.35;110818;1266;22224;-81
2023/11/01 08:20:17;;;;;;;7.50;1.40;;;;;;;11.50;87.62;99665.45;110729;1272;22187;-82
2023/11/01 08:22:47;;;;;;;9.70;1.90;;;;;;;11.55;87.64;99671.98;110778;1272;22189;-81
2023/11/01 08:25:15;;;;;;;7.20;1.40;;;;;;;11.60;87.57;99675.27;110796;1272;22151;-82
2023/11/01 08:27:45;;;;;;;4.60;1.20;;;;;;;11.64;87.62;99679.16;110749;1272;22174;-81
2023/11/01 08:30:19;;;;;;;7.90;1.50;;;;;;;11.68;87.38;99681.24;110699;1272;23119;-81
2023/11/01 08:32:51;;;;;;;5.30;1.40;;;;;;;11.73;87.50;99682.45;110808;1272;22163;-81
2023/11/01 08:35:20;;;;;;;6.60;1.50;;;;;;;11.78;87.44;99681.35;110767;1269;22403;-80
2023/11/01 08:37:54;;;;;;;8.50;2.00;;;;;;;11.83;87.53;99682.70;110797;1272;22404;-81
2023/11/01 08:40:23;;;;;;;7.10;1.50;;;;;;;11.89;87.68;99679.16;110793;1266;22250;-81
2023/11/01 08:42:52;;;;;;;7.80;1.40;;;;;;;11.95;87.55;99682.60;110643;1266;22240;-81
2023/11/01 08:45:20;;;;;;;6.10;1.40;;;;;;;12.01;87.69;99678.77;110853;1272;22358;-80
2023/11/01 08:47:49;;;;;;;5.80;1.60;;;;;;;12.08;87.60;99685.98;110797;1272;22182;-81
2023/11/01 08:50:18;;;;;;;8.60;1.40;;;;;;;12.15;87.65;99685.33;110729;1272;22141;-81
2023/11/01 08:52:46;;;;;;;5.80;1.10;;;;;;;12.22;87.49;99687.85;110695;1272;22162;-81
2023/11/01 08:55:16;;;;;;;7.70;1.20;;;;;;;12.27;87.27;99689.65;110830;1272;22230;-81
2023/11/01 08:57:45;;;;;;;3.30;0.90;;;;;;;12.33;87.26;99691.40;110732;1266;22192;-81
2023/11/01 09:00:15;;;;;;;5.90;1.30;;;;;;;12.40;87.27;99687.86;110736;1272;22172;-81
2023/11/01 09:02:44;;;;;;;4.70;1.10;;;;;;;12.47;86.97;99687.21;110783;1272;22997;-81
2023/11/01 09:05:12;;;;;;;5.30;1.10;;;;;;;12.54;86.97;99687.27;110828;1265;22272;-82
2023/11/01 09:07:42;;;;;;;4.50;0.90;;;;;;;12.59;86.67;99688.66;110564;1273;22402;-81
2023/11/01 09:10:11;;;;;;;3.50;0.90;;;;;;;12.63;86.93;99690.20;110733;1266;22219;-82
2023/11/01 09:12:39;;;;;;;5.30;0.90;;;;;;;12.68;86.58;99688.92;110747;1272;22313;-81
2023/11/01 09:15:12;;;;;;;3.50;1.00;;;;;;;12.72;86.42;99687.42;110802;1272;22170;-81
2023/11/01 09:17:40;;;;;;;3.50;0.90;;;;;;;12.76;86.10;99691.80;110632;1272;23205;-82
2023/11/01 09:20:11;;;;;;;3.80;0.90;;;;;;;12.78;85.99;99699.09;110801;1272;22218;-81
2023/11/01 09:22:40;;;;;;;6.00;1.00;;;;;;;12.81;86.06;99699.19;110816;1272;23098;-81
2023/11/01 09:25:11;;;;;;;3.50;0.80;;;;;;;12.85;85.86;99701.13;110809;1272;22659;-81
2023/11/01 09:27:42;;;;;;;2.80;0.60;;;;;;;12.88;85.54;99701.74;110742;1272;22815;-81
2023/11/01 09:30:12;;;;;;;3.60;0.60;;;;;;;12.91;85.41;99698.19;110822;1267;22221;-81
2023/11/01 09:32:43;;;;;;;3.40;0.80;;;;;;;12.93;85.21;99699.16;110757;1272;23488;-80
2023/11/01 09:35:12;;;;;;;2.90;0.50;;;;;;;12.94;85.27;99699.06;110752;1263;22895;-81
2023/11/01 09:37:40;;;;;;;4.00;0.80;;;;;;;12.94;84.89;99697.17;110790;1272;22422;-81
2023/11/01 09:40:12;;;;;;;2.80;0.60;;;;;;;12.95;84.92;99696.15;110811;1272;22202;-82
2023/11/01 09:42:48;;;;;;;3.00;0.60;;;;;;;12.97;84.83;99692.27;110798;1272;22911;-82
2023/11/01 09:45:19;;;;;;;4.30;0.60;;;;;;;13.01;84.83;99688.25;110587;1273;22229;-81
2023/11/01 09:47:50;;;;;;;2.70;0.50;;;;;;;13.05;84.18;99683.34;110821;1272;22186;-81
2023/11/01 09:50:19;;;;;;;1.90;0.50;;;;;;;13.11;84.31;99683.13;110870;1269;22324;-81
2023/11/01 09:52:47;;;;;;;1.90;0.40;;;;;;;13.19;84.10;99682.58;110813;1272;22353;-81
2023/11/01 09:55:15;;;;;;;6.40;0.70;;;;;;;13.25;83.45;99682.73;110761;1269;22382;-83
2023/11/01 09:57:47;;;;;;;3.30;0.50;;;;;;;13.32;83.43;99680.69;110784;1272;22350;-81
2023/11/01 10:00:18;;;;;;;4.50;0.60;;;;;;;13.40;83.23;99676.85;110853;1272;22154;-81
2023/11/01 10:02:48;;;;;;;2.50;0.40;;;;;;;13.48;83.18;99673.77;110570;1272;22217;-82
2023/11/01 10:05:17;;;;;;;3.20;0.60;;;;;;;13.55;83.18;99672.94;110794;1271;22309;-80
2023/11/01 10:07:45;;;;;;;4.40;0.60;;;;;;;13.61;83.36;99671.60;110793;1272;22226;-82
2023/11/01 10:10:17;;;;;;;2.30;0.50;;;;;;;13.68;83.09;99670.66;110820;1266;22393;-81
2023/11/01 10:12:45;;;;;;;2.00;0.60;;;;;;;13.74;82.62;99667.70;110829;1269;22313;-83
2023/11/01 10:15:20;;;;;;;4.70;0.60;;;;;;;13.79;82.54;99664.83;110856;1272;22144;-81
2023/11/01 10:17:51;;;;;;;4.00;0.50;;;;;;;13.85;82.53;99658.48;110613;1272;22409;-81
2023/11/01 10:20:24;;;;;;;2.40;0.50;;;;;;;13.89;82.16;99657.34;110851;1272;22225;-81
2023/11/01 10:22:52;;;;;;;2.00;0.50;;;;;;;13.92;81.44;99659.73;110746;1269;22401;-81
2023/11/01 10:25:20;;;;;;;1.40;0.50;;;;;;;13.96;81.33;99656.35;110816;1272;23416;-81
2023/11/01 10:27:50;;;;;;;4.20;0.70;;;;;;;14.00;81.49;99655.30;110822;1272;22245;-81
2023/11/01 10:30:21;;;;;;;2.60;1.00;;;;;;;14.05;81.28;99653.34;110803;1257;22178;-81
2023/11/01 10:32:57;;;;;;;1.50;0.40;;;;;;;14.10;80.88;99651.34;110797;1272;22328;-81
2023/11/01 10:35:26;;;;;;;4.30;0.90;;;;;;;14.14;80.79;99644.42;110836;1272;22214;-82
2023/11/01 10:37:59;;;;;;;4.50;0.70;;;;;;;14.18;81.06;99638.48;110752;1272;22174;-81
2023/11/01 10:40:29;;;;;;;1.70;0.50;;;;;;;14.23;80.75;99638.05;110747;1272;22148;-81
2023/11/01 10:43:02;;;;;;;1.70;0.40;;;;;;;14.25;80.56;99643.39;110758;1272;22182;-81
2023/11/01 10:45:33;;;;;;;2.00;0.50;;;;;;;14.25;79.94;99642.23;110892;1272;22415;-82
2023/11/01 10:48:04;;;;;;;4.00;0.50;;;;;;;14.25;79.71;99640.70;110912;1272;22185;-82
2023/11/01 10:50:33;;;;;;;1.70;0.50;;;;;;;14.26;79.54;99637.77;110846;1269;22342;-81
2023/11/01 10:53:02;;;;;;;3.30;0.50;;;;;;;14.28;78.95;99637.26;110729;1272;23199;-81
2023/11/01 10:55:32;;;;;;;2.60;0.50;;;;;;;14.29;78.32;99625.08;110823;1272;22380;-81
2023/11/01 10:58:01;;;;;;;1.80;0.50;;;;;;;14.30;78.43;99625.27;110744;1272;22220;-81
2023/11/01 11:00:37;;;;;;;2.70;0.50;;;;;;;14.34;78.38;99619.23;110767;1266;22151;-81
2023/11/01 11:03:11;;;;;;;2.70;0.60;;;;;;;14.38;78.33;99616.35;110774;1272;22338;-81
2023/11/01 11:05:42;;;;;;;3.80;0.60;;;;;;;14.42;77.68;99615.81;110680;1266;22389;-81
2023/11/01 11:08:13;;;;;;;2.60;0.30;;;;;;;14.45;77.35;99613.79;110748;1272;22640;-81
2023/11/01 11:10:43;;;;;;;3.40;0.30;;;;;;;14.47;76.75;99608.63;110750;1272;22373;-81
2023/11/01 11:13:38;;;;;;;2.60;0.50;;;;;;;14.45;75.94;99608.23;110782;1272;22182;-81
2023/11/01 11:16:08;;;;;;;2.50;0.50;;;;;;;14.46;76.75;99603.38;110581;1272;22339;-82
2023/11/01 11:18:58;;;;;;;3.20;0.50;;;;;;;14.48;76.78;99604.78;110703;1269;23315;-81
2023/11/01 11:22:02;;;;;;;2.90;0.50;;;;;;;14.50;76.08;99607.95;110767;1265;22145;-81
2023/11/01 11:24:55;;;;;;;2.70;0.40;;;;;;;14.52;76.12;99612.61;110771;1272;22765;-81
2023/11/01 11:27:51;;;;;;;1.00;0.30;;;;;;;14.56;76.01;99612.50;110776;1272;22984;-81
2023/11/01 11:31:07;;;;;;;2.50;0.50;;;;;;;14.60;75.86;99606.75;110706;1272;22245;-81
2023/11/01 11:33:36;;;;;;;1.60;0.40;;;;;;;14.63;75.16;99602.28;110059;1272;22500;-81
2023/11/01 11:36:17;;;;;;;3.20;0.60;;;;;;;14.63;75.35;99599.52;110101;1279;22207;-81
2023/11/01 11:38:52;;;;;;;4.20;0.60;;;;;;;14.65;75.41;99597.10;110077;1279;22224;-81